sensor_id;sensor_type;location;lat;lon;timestamp;temperature;humidity
17284;DHT22;8760;52.248;20.952;2023-10-09T00:01:26;4.20;1.00
17284;DHT22;8760;52.248;20.952;2023-10-09T00:03:53;4.20;1.00
17284;DHT22;8760;52.248;20.952;2023-10-09T00:06:22;4.10;1.00
17284;DHT22;8760;52.248;20.952;2023-10-09T00:09:02;4.20;1.00
17284;DHT22;8760;52.248;20.952;2023-10-09T00:11:43;4.10;1.00
17284;DHT22;8760;52.248;20.952;2023-10-09T00:14:10;4.10;1.00
17284;DHT22;8760;52.248;20.952;2023-10-09T00:16:38;4.10;1.00
17284;DHT22;8760;52.248;20.952;2023-10-09T00:19:12;4.10;1.00
17284;DHT22;8760;52.248;20.952;2023-10-09T00:21:44;4.10;1.00
17284;DHT22;8760;52.248;20.952;2023-10-09T00:24:11;4.10;1.00
17284;DHT22;8760;52.248;20.952;2023-10-09T00:26:49;4.20;1.00
17284;DHT22;8760;52.248;20.952;2023-10-09T00:29:17;4.10;1.00
17284;DHT22;8760;52.248;20.952;2023-10-09T00:31:49;4.10;1.00
17284;DHT22;8760;52.248;20.952;2023-10-09T00:34:20;4.10;1.00
17284;DHT22;8760;52.248;20.952;2023-10-09T00:36:49;4.10;1.00
17284;DHT22;8760;52.248;20.952;2023-10-09T00:39:20;4.10;15.60
17284;DHT22;8760;52.248;20.952;2023-10-09T00:42:08;4.00;72.00
17284;DHT22;8760;52.248;20.952;2023-10-09T00:44:38;4.00;15.40
17284;DHT22;8760;52.248;20.952;2023-10-09T00:47:07;4.10;69.30
17284;DHT22;8760;52.248;20.952;2023-10-09T00:49:48;4.10;90.00
17284;DHT22;8760;52.248;20.952;2023-10-09T00:52:17;4.10;1.00
17284;DHT22;8760;52.248;20.952;2023-10-09T00:54:55;4.20;1.00
17284;DHT22;8760;52.248;20.952;2023-10-09T00:57:28;4.10;1.00
17284;DHT22;8760;52.248;20.952;2023-10-09T00:59:58;4.10;1.00
17284;DHT22;8760;52.248;20.952;2023-10-09T01:02:27;4.10;1.00
17284;DHT22;8760;52.248;20.952;2023-10-09T01:05:03;4.20;1.00
17284;DHT22;8760;52.248;20.952;2023-10-09T01:07:47;4.10;1.00
17284;DHT22;8760;52.248;20.952;2023-10-09T01:10:23;4.10;1.00
17284;DHT22;8760;52.248;20.952;2023-10-09T01:12:59;4.00;77.10
17284;DHT22;8760;52.248;20.952;2023-10-09T01:15:26;4.00;99.90
17284;DHT22;8760;52.248;20.952;2023-10-09T01:18:09;4.10;85.90
17284;DHT22;8760;52.248;20.952;2023-10-09T01:20:37;4.00;95.60
17284;DHT22;8760;52.248;20.952;2023-10-09T01:23:11;4.10;99.90
17284;DHT22;8760;52.248;20.952;2023-10-09T01:25:38;4.10;97.20
17284;DHT22;8760;52.248;20.952;2023-10-09T01:28:15;4.10;99.90
17284;DHT22;8760;52.248;20.952;2023-10-09T01:30:42;4.10;99.90
17284;DHT22;8760;52.248;20.952;2023-10-09T01:33:11;4.00;99.90
17284;DHT22;8760;52.248;20.952;2023-10-09T01:35:50;4.10;79.70
17284;DHT22;8760;52.248;20.952;2023-10-09T01:38:25;4.10;44.10
17284;DHT22;8760;52.248;20.952;2023-10-09T01:41:07;4.10;1.00
17284;DHT22;8760;52.248;20.952;2023-10-09T01:43:34;4.20;1.00
17284;DHT22;8760;52.248;20.952;2023-10-09T01:46:02;4.20;1.00
17284;DHT22;8760;52.248;20.952;2023-10-09T01:48:30;4.20;1.00
17284;DHT22;8760;52.248;20.952;2023-10-09T01:51:03;4.30;1.00
17284;DHT22;8760;52.248;20.952;2023-10-09T01:53:35;4.30;1.00
17284;DHT22;8760;52.248;20.952;2023-10-09T01:56:12;4.30;1.00
17284;DHT22;8760;52.248;20.952;2023-10-09T01:58:42;4.30;1.00
17284;DHT22;8760;52.248;20.952;2023-10-09T02:01:13;4.30;1.00
17284;DHT22;8760;52.248;20.952;2023-10-09T02:03:41;4.30;1.00
17284;DHT22;8760;52.248;20.952;2023-10-09T02:06:09;4.40;1.00
17284;DHT22;8760;52.248;20.952;2023-10-09T02:08:54;4.40;1.00
17284;DHT22;8760;52.248;20.952;2023-10-09T02:11:22;4.50;1.00
17284;DHT22;8760;52.248;20.952;2023-10-09T02:14:03;4.50;1.00
17284;DHT22;8760;52.248;20.952;2023-10-09T02:16:41;4.50;1.00
17284;DHT22;8760;52.248;20.952;2023-10-09T02:19:09;4.50;1.00
17284;DHT22;8760;52.248;20.952;2023-10-09T02:21:55;4.50;1.00
17284;DHT22;8760;52.248;20.952;2023-10-09T02:24:26;4.50;1.00
17284;DHT22;8760;52.248;20.952;2023-10-09T02:27:09;4.50;1.00
17284;DHT22;8760;52.248;20.952;2023-10-09T02:29:41;4.50;1.00
17284;DHT22;8760;52.248;20.952;2023-10-09T02:32:08;4.50;1.00
17284;DHT22;8760;52.248;20.952;2023-10-09T02:34:50;4.50;1.00
17284;DHT22;8760;52.248;20.952;2023-10-09T02:37:19;4.50;1.00
17284;DHT22;8760;52.248;20.952;2023-10-09T02:39:50;4.50;1.00
17284;DHT22;8760;52.248;20.952;2023-10-09T02:42:18;4.50;1.00
17284;DHT22;8760;52.248;20.952;2023-10-09T02:44:51;4.40;1.00
17284;DHT22;8760;52.248;20.952;2023-10-09T02:47:18;4.40;1.00
17284;DHT22;8760;52.248;20.952;2023-10-09T02:49:50;4.40;1.00
17284;DHT22;8760;52.248;20.952;2023-10-09T02:52:17;4.40;1.00
17284;DHT22;8760;52.248;20.952;2023-10-09T02:54:51;4.40;1.00
17284;DHT22;8760;52.248;20.952;2023-10-09T02:57:26;4.40;1.00
17284;DHT22;8760;52.248;20.952;2023-10-09T03:00:02;4.40;1.00
17284;DHT22;8760;52.248;20.952;2023-10-09T03:02:34;4.50;1.00
17284;DHT22;8760;52.248;20.952;2023-10-09T03:05:05;4.50;1.00
17284;DHT22;8760;52.248;20.952;2023-10-09T03:07:37;4.40;1.00
17284;DHT22;8760;52.248;20.952;2023-10-09T03:10:07;4.40;1.00
17284;DHT22;8760;52.248;20.952;2023-10-09T03:12:35;4.50;1.00
17284;DHT22;8760;52.248;20.952;2023-10-09T03:15:03;4.50;1.00
17284;DHT22;8760;52.248;20.952;2023-10-09T03:17:34;4.50;1.00
17284;DHT22;8760;52.248;20.952;2023-10-09T03:20:03;4.50;1.00
17284;DHT22;8760;52.248;20.952;2023-10-09T03:22:37;4.60;1.00
17284;DHT22;8760;52.248;20.952;2023-10-09T03:25:07;4.50;1.00
17284;DHT22;8760;52.248;20.952;2023-10-09T03:27:38;4.50;1.00
17284;DHT22;8760;52.248;20.952;2023-10-09T03:30:08;4.50;1.00
17284;DHT22;8760;52.248;20.952;2023-10-09T03:32:42;4.50;1.00
17284;DHT22;8760;52.248;20.952;2023-10-09T03:35:09;4.40;1.00
17284;DHT22;8760;52.248;20.952;2023-10-09T03:37:40;4.50;1.00
17284;DHT22;8760;52.248;20.952;2023-10-09T03:40:09;4.50;1.00
17284;DHT22;8760;52.248;20.952;2023-10-09T03:42:43;4.50;1.00
17284;DHT22;8760;52.248;20.952;2023-10-09T03:45:10;4.60;1.00
17284;DHT22;8760;52.248;20.952;2023-10-09T03:47:50;4.60;1.00
17284;DHT22;8760;52.248;20.952;2023-10-09T03:50:22;4.60;1.00
17284;DHT22;8760;52.248;20.952;2023-10-09T03:52:52;4.60;1.00
17284;DHT22;8760;52.248;20.952;2023-10-09T03:55:22;4.60;1.00
17284;DHT22;8760;52.248;20.952;2023-10-09T03:57:53;4.60;1.00
17284;DHT22;8760;52.248;20.952;2023-10-09T04:00:23;4.60;1.00
17284;DHT22;8760;52.248;20.952;2023-10-09T04:02:53;4.60;1.00
17284;DHT22;8760;52.248;20.952;2023-10-09T04:05:20;4.60;1.00
17284;DHT22;8760;52.248;20.952;2023-10-09T04:07:47;4.60;1.00
17284;DHT22;8760;52.248;20.952;2023-10-09T04:10:14;4.70;1.00
17284;DHT22;8760;52.248;20.952;2023-10-09T04:12:59;4.70;1.00
17284;DHT22;8760;52.248;20.952;2023-10-09T04:15:28;4.80;1.00
17284;DHT22;8760;52.248;20.952;2023-10-09T04:18:01;4.80;1.00
17284;DHT22;8760;52.248;20.952;2023-10-09T04:20:31;4.70;1.00
17284;DHT22;8760;52.248;20.952;2023-10-09T04:23:34;4.70;1.00
17284;DHT22;8760;52.248;20.952;2023-10-09T04:26:01;4.70;1.00
17284;DHT22;8760;52.248;20.952;2023-10-09T04:28:37;4.70;1.00
17284;DHT22;8760;52.248;20.952;2023-10-09T04:31:07;4.70;1.00
17284;DHT22;8760;52.248;20.952;2023-10-09T04:33:34;4.80;1.00
17284;DHT22;8760;52.248;20.952;2023-10-09T04:36:09;4.80;1.00
17284;DHT22;8760;52.248;20.952;2023-10-09T04:38:42;4.80;1.00
17284;DHT22;8760;52.248;20.952;2023-10-09T04:41:21;4.80;1.00
17284;DHT22;8760;52.248;20.952;2023-10-09T04:43:55;4.80;1.00
17284;DHT22;8760;52.248;20.952;2023-10-09T04:46:39;4.90;1.00
17284;DHT22;8760;52.248;20.952;2023-10-09T04:49:09;4.90;1.00
17284;DHT22;8760;52.248;20.952;2023-10-09T04:51:53;4.90;1.00
17284;DHT22;8760;52.248;20.952;2023-10-09T04:54:30;4.90;1.00
17284;DHT22;8760;52.248;20.952;2023-10-09T04:57:08;4.80;1.00
17284;DHT22;8760;52.248;20.952;2023-10-09T04:59:45;4.80;1.00
17284;DHT22;8760;52.248;20.952;2023-10-09T05:02:14;4.90;1.00
17284;DHT22;8760;52.248;20.952;2023-10-09T05:04:45;4.80;1.00
17284;DHT22;8760;52.248;20.952;2023-10-09T05:07:16;4.90;1.00
17284;DHT22;8760;52.248;20.952;2023-10-09T05:09:49;4.90;1.00
17284;DHT22;8760;52.248;20.952;2023-10-09T05:12:29;4.90;1.00
17284;DHT22;8760;52.248;20.952;2023-10-09T05:14:57;5.00;1.00
17284;DHT22;8760;52.248;20.952;2023-10-09T05:17:34;5.00;1.00
17284;DHT22;8760;52.248;20.952;2023-10-09T05:20:00;5.00;1.00
17284;DHT22;8760;52.248;20.952;2023-10-09T05:22:43;5.10;1.00
17284;DHT22;8760;52.248;20.952;2023-10-09T05:25:23;5.10;1.00
17284;DHT22;8760;52.248;20.952;2023-10-09T05:28:04;5.10;1.00
17284;DHT22;8760;52.248;20.952;2023-10-09T05:30:52;5.20;1.00
17284;DHT22;8760;52.248;20.952;2023-10-09T05:33:28;5.20;1.00
17284;DHT22;8760;52.248;20.952;2023-10-09T05:36:00;5.30;1.00
17284;DHT22;8760;52.248;20.952;2023-10-09T05:38:40;5.30;1.00
17284;DHT22;8760;52.248;20.952;2023-10-09T05:41:12;5.30;1.00
17284;DHT22;8760;52.248;20.952;2023-10-09T05:43:52;5.40;1.00
17284;DHT22;8760;52.248;20.952;2023-10-09T05:46:38;5.40;1.00
17284;DHT22;8760;52.248;20.952;2023-10-09T05:49:25;5.40;1.00
17284;DHT22;8760;52.248;20.952;2023-10-09T05:52:11;5.50;1.00
17284;DHT22;8760;52.248;20.952;2023-10-09T05:54:51;5.50;1.00
17284;DHT22;8760;52.248;20.952;2023-10-09T05:57:35;5.50;1.00
17284;DHT22;8760;52.248;20.952;2023-10-09T06:00:25;5.60;99.90
17284;DHT22;8760;52.248;20.952;2023-10-09T06:03:11;5.60;99.90
17284;DHT22;8760;52.248;20.952;2023-10-09T06:05:51;5.60;99.90
17284;DHT22;8760;52.248;20.952;2023-10-09T06:08:30;5.60;99.90
17284;DHT22;8760;52.248;20.952;2023-10-09T06:11:12;5.60;1.00
17284;DHT22;8760;52.248;20.952;2023-10-09T06:13:53;5.70;1.00
17284;DHT22;8760;52.248;20.952;2023-10-09T06:16:28;5.70;1.00
17284;DHT22;8760;52.248;20.952;2023-10-09T06:19:09;5.80;99.90
17284;DHT22;8760;52.248;20.952;2023-10-09T06:21:37;5.80;99.90
17284;DHT22;8760;52.248;20.952;2023-10-09T06:24:22;5.80;99.90
17284;DHT22;8760;52.248;20.952;2023-10-09T06:26:50;5.90;99.90
17284;DHT22;8760;52.248;20.952;2023-10-09T06:29:39;6.00;99.90
17284;DHT22;8760;52.248;20.952;2023-10-09T06:32:18;5.90;99.90
17284;DHT22;8760;52.248;20.952;2023-10-09T06:35:02;5.90;1.00
17284;DHT22;8760;52.248;20.952;2023-10-09T06:37:42;6.00;99.90
17284;DHT22;8760;52.248;20.952;2023-10-09T06:40:23;6.10;99.90
17284;DHT22;8760;52.248;20.952;2023-10-09T06:43:04;6.10;99.90
17284;DHT22;8760;52.248;20.952;2023-10-09T06:45:35;6.10;99.90
17284;DHT22;8760;52.248;20.952;2023-10-09T06:48:10;6.20;99.90
17284;DHT22;8760;52.248;20.952;2023-10-09T06:50:52;6.20;99.90
17284;DHT22;8760;52.248;20.952;2023-10-09T06:53:29;6.10;99.90
17284;DHT22;8760;52.248;20.952;2023-10-09T06:56:25;6.10;99.90
17284;DHT22;8760;52.248;20.952;2023-10-09T06:59:12;6.20;99.90
17284;DHT22;8760;52.248;20.952;2023-10-09T07:01:46;6.40;99.90
17284;DHT22;8760;52.248;20.952;2023-10-09T07:04:34;6.40;99.90
17284;DHT22;8760;52.248;20.952;2023-10-09T07:07:13;6.50;99.90
17284;DHT22;8760;52.248;20.952;2023-10-09T07:09:42;6.70;99.90
17284;DHT22;8760;52.248;20.952;2023-10-09T07:12:08;6.80;99.90
17284;DHT22;8760;52.248;20.952;2023-10-09T07:14:40;6.80;99.90
17284;DHT22;8760;52.248;20.952;2023-10-09T07:17:24;7.00;99.90
17284;DHT22;8760;52.248;20.952;2023-10-09T07:20:11;7.20;99.90
17284;DHT22;8760;52.248;20.952;2023-10-09T07:22:42;7.60;99.90
17284;DHT22;8760;52.248;20.952;2023-10-09T07:25:39;7.80;99.90
17284;DHT22;8760;52.248;20.952;2023-10-09T07:28:21;8.00;99.90
17284;DHT22;8760;52.248;20.952;2023-10-09T07:31:08;8.40;99.90
17284;DHT22;8760;52.248;20.952;2023-10-09T07:33:50;9.00;99.90
17284;DHT22;8760;52.248;20.952;2023-10-09T07:36:22;10.00;99.90
17284;DHT22;8760;52.248;20.952;2023-10-09T07:39:05;10.40;99.90
17284;DHT22;8760;52.248;20.952;2023-10-09T07:41:42;10.10;94.60
17284;DHT22;8760;52.248;20.952;2023-10-09T07:44:22;9.90;92.70
17284;DHT22;8760;52.248;20.952;2023-10-09T07:47:03;9.80;90.40
17284;DHT22;8760;52.248;20.952;2023-10-09T07:49:48;9.90;87.50
17284;DHT22;8760;52.248;20.952;2023-10-09T07:52:20;9.80;85.80
17284;DHT22;8760;52.248;20.952;2023-10-09T07:54:50;10.10;73.70
17284;DHT22;8760;52.248;20.952;2023-10-09T07:57:20;9.80;59.00
17284;DHT22;8760;52.248;20.952;2023-10-09T07:59:51;10.00;63.90
17284;DHT22;8760;52.248;20.952;2023-10-09T08:02:28;10.20;56.90
17284;DHT22;8760;52.248;20.952;2023-10-09T08:05:01;10.40;53.50
17284;DHT22;8760;52.248;20.952;2023-10-09T08:07:32;10.60;45.00
17284;DHT22;8760;52.248;20.952;2023-10-09T08:10:03;10.50;40.80
17284;DHT22;8760;52.248;20.952;2023-10-09T08:12:47;10.60;30.00
17284;DHT22;8760;52.248;20.952;2023-10-09T08:15:46;10.50;25.70
17284;DHT22;8760;52.248;20.952;2023-10-09T08:18:21;10.40;22.70
17284;DHT22;8760;52.248;20.952;2023-10-09T08:20:54;10.40;24.50
17284;DHT22;8760;52.248;20.952;2023-10-09T08:23:39;10.30;25.60
17284;DHT22;8760;52.248;20.952;2023-10-09T08:26:17;10.20;23.90
17284;DHT22;8760;52.248;20.952;2023-10-09T08:28:54;10.10;22.80
17284;DHT22;8760;52.248;20.952;2023-10-09T08:31:41;10.10;23.60
17284;DHT22;8760;52.248;20.952;2023-10-09T08:34:11;10.10;25.40
17284;DHT22;8760;52.248;20.952;2023-10-09T08:36:50;10.10;24.50
17284;DHT22;8760;52.248;20.952;2023-10-09T08:39:18;10.30;24.60
17284;DHT22;8760;52.248;20.952;2023-10-09T08:41:52;10.50;23.90
17284;DHT22;8760;52.248;20.952;2023-10-09T08:44:25;10.80;20.00
17284;DHT22;8760;52.248;20.952;2023-10-09T08:46:54;10.90;14.20
17284;DHT22;8760;52.248;20.952;2023-10-09T08:49:21;10.90;14.20
17284;DHT22;8760;52.248;20.952;2023-10-09T08:51:48;11.10;9.40
17284;DHT22;8760;52.248;20.952;2023-10-09T08:54:15;11.30;7.70
17284;DHT22;8760;52.248;20.952;2023-10-09T08:56:42;11.20;5.00
17284;DHT22;8760;52.248;20.952;2023-10-09T08:59:17;11.10;6.90
17284;DHT22;8760;52.248;20.952;2023-10-09T09:01:47;10.90;1.00
17284;DHT22;8760;52.248;20.952;2023-10-09T09:04:40;10.90;1.40
17284;DHT22;8760;52.248;20.952;2023-10-09T09:07:24;11.10;1.00
17284;DHT22;8760;52.248;20.952;2023-10-09T09:09:54;11.30;1.00
17284;DHT22;8760;52.248;20.952;2023-10-09T09:12:22;11.60;1.00
17284;DHT22;8760;52.248;20.952;2023-10-09T09:14:51;11.90;1.00
17284;DHT22;8760;52.248;20.952;2023-10-09T09:17:23;12.20;1.00
17284;DHT22;8760;52.248;20.952;2023-10-09T09:19:53;12.10;1.00
17284;DHT22;8760;52.248;20.952;2023-10-09T09:22:19;11.90;1.00
17284;DHT22;8760;52.248;20.952;2023-10-09T09:24:57;12.10;1.00
17284;DHT22;8760;52.248;20.952;2023-10-09T09:27:43;12.10;1.00
17284;DHT22;8760;52.248;20.952;2023-10-09T09:30:24;11.80;1.00
17284;DHT22;8760;52.248;20.952;2023-10-09T09:32:57;11.80;1.00
17284;DHT22;8760;52.248;20.952;2023-10-09T09:35:37;11.60;1.00
17284;DHT22;8760;52.248;20.952;2023-10-09T09:38:05;11.70;1.00
17284;DHT22;8760;52.248;20.952;2023-10-09T09:40:33;12.00;1.00
17284;DHT22;8760;52.248;20.952;2023-10-09T09:43:08;12.50;1.00
17284;DHT22;8760;52.248;20.952;2023-10-09T09:45:48;13.40;1.00
17284;DHT22;8760;52.248;20.952;2023-10-09T09:48:16;14.10;1.00
17284;DHT22;8760;52.248;20.952;2023-10-09T09:50:44;14.40;1.00
17284;DHT22;8760;52.248;20.952;2023-10-09T09:53:13;14.40;1.00
17284;DHT22;8760;52.248;20.952;2023-10-09T09:55:45;14.30;1.00
17284;DHT22;8760;52.248;20.952;2023-10-09T09:58:18;13.90;1.00
17284;DHT22;8760;52.248;20.952;2023-10-09T10:00:48;13.70;1.00
17284;DHT22;8760;52.248;20.952;2023-10-09T10:03:23;13.40;1.00
17284;DHT22;8760;52.248;20.952;2023-10-09T10:05:51;13.00;1.00
17284;DHT22;8760;52.248;20.952;2023-10-09T10:08:21;12.90;1.00
17284;DHT22;8760;52.248;20.952;2023-10-09T10:10:57;12.70;1.00
17284;DHT22;8760;52.248;20.952;2023-10-09T10:13:55;12.30;1.00
17284;DHT22;8760;52.248;20.952;2023-10-09T10:16:29;12.40;1.00
17284;DHT22;8760;52.248;20.952;2023-10-09T10:19:02;12.20;1.00
17284;DHT22;8760;52.248;20.952;2023-10-09T10:21:48;12.00;1.00
17284;DHT22;8760;52.248;20.952;2023-10-09T10:24:41;11.80;1.00
17284;DHT22;8760;52.248;20.952;2023-10-09T10:27:21;11.80;1.00
17284;DHT22;8760;52.248;20.952;2023-10-09T10:30:29;11.70;1.00
17284;DHT22;8760;52.248;20.952;2023-10-09T10:33:01;11.60;1.00
17284;DHT22;8760;52.248;20.952;2023-10-09T10:35:36;11.70;1.00
17284;DHT22;8760;52.248;20.952;2023-10-09T10:38:27;11.70;1.00
17284;DHT22;8760;52.248;20.952;2023-10-09T10:41:12;11.60;1.00
17284;DHT22;8760;52.248;20.952;2023-10-09T10:43:42;11.40;1.00
17284;DHT22;8760;52.248;20.952;2023-10-09T10:46:23;11.50;1.00
17284;DHT22;8760;52.248;20.952;2023-10-09T10:49:06;11.50;1.00
17284;DHT22;8760;52.248;20.952;2023-10-09T10:51:50;11.40;1.00
17284;DHT22;8760;52.248;20.952;2023-10-09T10:54:27;11.20;1.00
17284;DHT22;8760;52.248;20.952;2023-10-09T10:57:17;11.20;1.00
17284;DHT22;8760;52.248;20.952;2023-10-09T10:59:56;11.30;1.00
17284;DHT22;8760;52.248;20.952;2023-10-09T11:02:43;11.20;1.00
17284;DHT22;8760;52.248;20.952;2023-10-09T11:05:11;11.00;1.00
17284;DHT22;8760;52.248;20.952;2023-10-09T11:07:57;10.90;1.00
17284;DHT22;8760;52.248;20.952;2023-10-09T11:10:26;10.80;1.00
17284;DHT22;8760;52.248;20.952;2023-10-09T11:12:54;10.80;1.00
17284;DHT22;8760;52.248;20.952;2023-10-09T11:15:53;10.80;1.00
17284;DHT22;8760;52.248;20.952;2023-10-09T11:18:40;10.80;1.00
17284;DHT22;8760;52.248;20.952;2023-10-09T11:21:13;10.80;1.00
17284;DHT22;8760;52.248;20.952;2023-10-09T11:23:59;10.80;1.00
17284;DHT22;8760;52.248;20.952;2023-10-09T11:26:47;10.90;1.00
17284;DHT22;8760;52.248;20.952;2023-10-09T11:29:21;11.00;1.00
17284;DHT22;8760;52.248;20.952;2023-10-09T11:32:16;11.00;1.00
17284;DHT22;8760;52.248;20.952;2023-10-09T11:34:43;11.00;1.00
17284;DHT22;8760;52.248;20.952;2023-10-09T11:37:20;11.00;1.00
17284;DHT22;8760;52.248;20.952;2023-10-09T11:40:06;11.10;1.00
17284;DHT22;8760;52.248;20.952;2023-10-09T11:42:50;11.10;1.00
17284;DHT22;8760;52.248;20.952;2023-10-09T11:45:21;11.20;1.00
17284;DHT22;8760;52.248;20.952;2023-10-09T11:47:52;11.30;1.00
17284;DHT22;8760;52.248;20.952;2023-10-09T11:50:42;11.30;1.00
17284;DHT22;8760;52.248;20.952;2023-10-09T11:53:18;11.30;1.00
17284;DHT22;8760;52.248;20.952;2023-10-09T11:55:59;11.40;1.00
17284;DHT22;8760;52.248;20.952;2023-10-09T11:58:26;11.40;1.00
17284;DHT22;8760;52.248;20.952;2023-10-09T12:00:53;11.40;1.00
17284;DHT22;8760;52.248;20.952;2023-10-09T12:03:23;11.30;1.00
17284;DHT22;8760;52.248;20.952;2023-10-09T12:05:54;11.10;1.00
17284;DHT22;8760;52.248;20.952;2023-10-09T12:08:23;11.00;1.00
17284;DHT22;8760;52.248;20.952;2023-10-09T12:10:53;10.80;1.00
17284;DHT22;8760;52.248;20.952;2023-10-09T12:13:22;10.60;1.00
17284;DHT22;8760;52.248;20.952;2023-10-09T12:15:49;10.50;1.60
17284;DHT22;8760;52.248;20.952;2023-10-09T12:18:21;10.70;12.30
17284;DHT22;8760;52.248;20.952;2023-10-09T12:20:49;10.70;17.90
17284;DHT22;8760;52.248;20.952;2023-10-09T12:23:29;10.70;22.70
17284;DHT22;8760;52.248;20.952;2023-10-09T12:26:01;10.70;29.60
17284;DHT22;8760;52.248;20.952;2023-10-09T12:28:28;10.60;40.40
17284;DHT22;8760;52.248;20.952;2023-10-09T12:30:55;10.60;48.00
17284;DHT22;8760;52.248;20.952;2023-10-09T12:33:27;10.60;60.50
17284;DHT22;8760;52.248;20.952;2023-10-09T12:35:55;10.50;67.20
17284;DHT22;8760;52.248;20.952;2023-10-09T12:38:25;10.50;79.90
17284;DHT22;8760;52.248;20.952;2023-10-09T12:41:03;10.50;90.90
17284;DHT22;8760;52.248;20.952;2023-10-09T12:43:34;10.50;93.10
17284;DHT22;8760;52.248;20.952;2023-10-09T12:46:05;10.50;96.30
17284;DHT22;8760;52.248;20.952;2023-10-09T12:48:33;10.70;99.90
17284;DHT22;8760;52.248;20.952;2023-10-09T12:51:01;10.90;99.90
17284;DHT22;8760;52.248;20.952;2023-10-09T12:53:32;10.90;98.10
17284;DHT22;8760;52.248;20.952;2023-10-09T12:55:59;10.80;96.30
17284;DHT22;8760;52.248;20.952;2023-10-09T12:58:27;10.80;99.90
17284;DHT22;8760;52.248;20.952;2023-10-09T13:00:54;10.80;99.90
17284;DHT22;8760;52.248;20.952;2023-10-09T13:03:21;11.00;99.90
17284;DHT22;8760;52.248;20.952;2023-10-09T13:05:53;11.00;99.90
17284;DHT22;8760;52.248;20.952;2023-10-09T13:08:23;10.90;99.90
17284;DHT22;8760;52.248;20.952;2023-10-09T13:10:56;10.80;99.90
17284;DHT22;8760;52.248;20.952;2023-10-09T13:13:28;10.80;99.90
17284;DHT22;8760;52.248;20.952;2023-10-09T13:16:09;10.70;99.90
17284;DHT22;8760;52.248;20.952;2023-10-09T13:18:39;10.70;99.90
17284;DHT22;8760;52.248;20.952;2023-10-09T13:21:06;10.60;99.90
17284;DHT22;8760;52.248;20.952;2023-10-09T13:23:33;10.50;99.90
17284;DHT22;8760;52.248;20.952;2023-10-09T13:26:12;10.60;99.90
17284;DHT22;8760;52.248;20.952;2023-10-09T13:28:51;10.60;99.90
17284;DHT22;8760;52.248;20.952;2023-10-09T13:31:19;10.60;99.90
17284;DHT22;8760;52.248;20.952;2023-10-09T13:33:48;10.60;99.90
17284;DHT22;8760;52.248;20.952;2023-10-09T13:36:15;10.60;99.90
17284;DHT22;8760;52.248;20.952;2023-10-09T13:38:52;10.40;99.90
17284;DHT22;8760;52.248;20.952;2023-10-09T13:41:20;10.30;99.90
17284;DHT22;8760;52.248;20.952;2023-10-09T13:43:47;10.20;99.90
17284;DHT22;8760;52.248;20.952;2023-10-09T13:46:18;10.10;99.90
17284;DHT22;8760;52.248;20.952;2023-10-09T13:48:45;10.00;99.90
17284;DHT22;8760;52.248;20.952;2023-10-09T13:51:15;10.00;99.90
17284;DHT22;8760;52.248;20.952;2023-10-09T13:53:44;10.10;99.90
17284;DHT22;8760;52.248;20.952;2023-10-09T13:56:15;10.20;99.90
17284;DHT22;8760;52.248;20.952;2023-10-09T13:58:45;10.30;99.90
17284;DHT22;8760;52.248;20.952;2023-10-09T14:01:12;10.40;99.90
17284;DHT22;8760;52.248;20.952;2023-10-09T14:03:47;10.50;99.90
17284;DHT22;8760;52.248;20.952;2023-10-09T14:06:18;10.60;99.90
17284;DHT22;8760;52.248;20.952;2023-10-09T14:08:56;10.80;99.90
17284;DHT22;8760;52.248;20.952;2023-10-09T14:11:23;11.20;99.90
17284;DHT22;8760;52.248;20.952;2023-10-09T14:13:50;11.50;99.90
17284;DHT22;8760;52.248;20.952;2023-10-09T14:16:17;11.40;99.90
17284;DHT22;8760;52.248;20.952;2023-10-09T14:18:54;11.30;99.90
17284;DHT22;8760;52.248;20.952;2023-10-09T14:21:24;11.10;99.90
17284;DHT22;8760;52.248;20.952;2023-10-09T14:23:53;10.80;99.90
17284;DHT22;8760;52.248;20.952;2023-10-09T14:26:24;10.70;99.90
17284;DHT22;8760;52.248;20.952;2023-10-09T14:28:51;10.60;99.90
17284;DHT22;8760;52.248;20.952;2023-10-09T14:31:19;10.60;99.90
17284;DHT22;8760;52.248;20.952;2023-10-09T14:33:53;10.60;99.90
17284;DHT22;8760;52.248;20.952;2023-10-09T14:36:21;10.70;99.90
17284;DHT22;8760;52.248;20.952;2023-10-09T14:38:49;10.80;99.90
17284;DHT22;8760;52.248;20.952;2023-10-09T14:41:19;10.80;99.90
17284;DHT22;8760;52.248;20.952;2023-10-09T14:43:49;10.80;99.90
17284;DHT22;8760;52.248;20.952;2023-10-09T14:46:16;10.90;99.90
17284;DHT22;8760;52.248;20.952;2023-10-09T14:48:49;11.00;99.90
17284;DHT22;8760;52.248;20.952;2023-10-09T14:51:20;11.10;99.90
17284;DHT22;8760;52.248;20.952;2023-10-09T14:53:55;11.10;99.90
17284;DHT22;8760;52.248;20.952;2023-10-09T14:56:25;10.90;99.90
17284;DHT22;8760;52.248;20.952;2023-10-09T14:58:56;10.90;99.90
17284;DHT22;8760;52.248;20.952;2023-10-09T15:01:24;10.90;99.90
17284;DHT22;8760;52.248;20.952;2023-10-09T15:03:57;10.90;99.90
17284;DHT22;8760;52.248;20.952;2023-10-09T15:06:27;10.90;99.90
17284;DHT22;8760;52.248;20.952;2023-10-09T15:08:56;10.80;99.90
17284;DHT22;8760;52.248;20.952;2023-10-09T15:11:23;10.70;99.90
17284;DHT22;8760;52.248;20.952;2023-10-09T15:13:51;10.60;99.90
17284;DHT22;8760;52.248;20.952;2023-10-09T15:16:19;10.50;99.90
17284;DHT22;8760;52.248;20.952;2023-10-09T15:18:47;10.40;99.90
17284;DHT22;8760;52.248;20.952;2023-10-09T15:21:18;10.30;99.90
17284;DHT22;8760;52.248;20.952;2023-10-09T15:23:49;10.10;99.90
17284;DHT22;8760;52.248;20.952;2023-10-09T15:26:19;10.00;99.90
17284;DHT22;8760;52.248;20.952;2023-10-09T15:28:48;9.90;99.90
17284;DHT22;8760;52.248;20.952;2023-10-09T15:31:16;9.80;99.90
17284;DHT22;8760;52.248;20.952;2023-10-09T15:33:43;9.70;1.00
17284;DHT22;8760;52.248;20.952;2023-10-09T15:36:12;9.60;1.00
17284;DHT22;8760;52.248;20.952;2023-10-09T15:38:39;9.50;1.00
17284;DHT22;8760;52.248;20.952;2023-10-09T15:41:07;9.40;1.00
17284;DHT22;8760;52.248;20.952;2023-10-09T15:43:35;9.30;1.00
17284;DHT22;8760;52.248;20.952;2023-10-09T15:46:03;9.20;1.00
17284;DHT22;8760;52.248;20.952;2023-10-09T15:48:30;9.10;58.20
17284;DHT22;8760;52.248;20.952;2023-10-09T15:50:58;9.00;99.90
17284;DHT22;8760;52.248;20.952;2023-10-09T15:53:25;8.90;99.90
17284;DHT22;8760;52.248;20.952;2023-10-09T15:55:52;8.80;99.90
17284;DHT22;8760;52.248;20.952;2023-10-09T15:58:24;8.70;1.00
17284;DHT22;8760;52.248;20.952;2023-10-09T16:00:51;8.60;1.00
17284;DHT22;8760;52.248;20.952;2023-10-09T16:03:18;8.50;3.00
17284;DHT22;8760;52.248;20.952;2023-10-09T16:05:45;8.40;99.90
17284;DHT22;8760;52.248;20.952;2023-10-09T16:08:12;8.40;1.00
17284;DHT22;8760;52.248;20.952;2023-10-09T16:10:44;8.30;1.00
17284;DHT22;8760;52.248;20.952;2023-10-09T16:13:13;8.20;1.00
17284;DHT22;8760;52.248;20.952;2023-10-09T16:15:44;8.20;1.00
17284;DHT22;8760;52.248;20.952;2023-10-09T16:18:11;8.10;1.00
17284;DHT22;8760;52.248;20.952;2023-10-09T16:20:38;8.10;77.90
17284;DHT22;8760;52.248;20.952;2023-10-09T16:23:05;8.00;99.90
17284;DHT22;8760;52.248;20.952;2023-10-09T16:25:35;7.90;1.00
17284;DHT22;8760;52.248;20.952;2023-10-09T16:28:02;7.90;1.00
17284;DHT22;8760;52.248;20.952;2023-10-09T16:30:29;7.90;1.00